Weather reports worldwide

Advertisment
Kinbrace, United Kingdom (99016): temperature & dewpoint: 15.05.2019 04:00:00 - 21.05.2019 04:00:00 (BST)Kinbrace, United Kingdom (99016): wind speed & gusts: 15.05.2019 04:00:00 - 21.05.2019 04:00:00 (BST)Kinbrace, United Kingdom (99016): wind direction: 15.05.2019 04:00:00 - 21.05.2019 04:00:00 (BST)Kinbrace, United Kingdom (99016): precipitation: 15.05.2019 04:00:00 - 21.05.2019 04:00:00 (BST)
Date & Time tt [°C] td [°C] ff [km/h] ff [kn] fx [km/h] fx [kn] dd rr [mm]
21.05.2019 04:00:00 6,5 6,1 0 0 - - N 0,0
21.05.2019 03:00:00 6,5 6,1 2 1 - - N 0,2
21.05.2019 02:00:00 6,4 5,7 4 2 - - NNE 0,0
21.05.2019 01:00:00 7,0 5,9 4 2 - - N 0,0
21.05.2019 00:00:00 8,4 7,2 15 8 - - N 0,0
20.05.2019 23:00:00 8,9 7,9 16 9 - - NNE 0,0
20.05.2019 22:00:00 9,5 8,5 15 8 - - NNE 0,0
20.05.2019 21:00:00 9,8 9,0 11 6 - - N 0,0
20.05.2019 20:00:00 10,2 9,3 16 9 - - N 0,0
20.05.2019 19:00:00 10,8 9,9 16 9 - - N 0,4
20.05.2019 18:00:00 11,3 10,6 15 8 - - N 1,4
20.05.2019 17:00:00 11,1 10,0 16 9 - - NW 0,4
20.05.2019 16:00:00 13,2 11,1 15 8 - - NNE 0,0
20.05.2019 15:00:00 12,2 10,8 18 10 - - N 0,2
20.05.2019 14:00:00 12,3 10,9 8 4 - - NNW 0,2
20.05.2019 13:00:00 11,9 10,9 8 4 - - NNW 2,2
20.05.2019 12:00:00 10,9 10,3 8 4 - - WNW 3,2
20.05.2019 11:00:00 10,8 10,0 8 4 - - WNW 0,8
20.05.2019 10:00:00 10,9 10,3 8 4 - - NNW 0,0
20.05.2019 09:00:00 10,2 9,8 8 4 - - NNW 1,6
20.05.2019 08:00:00 9,9 9,5 9 5 - - NW 1,4
20.05.2019 07:00:00 10,1 9,6 8 4 - - NW 0,0
20.05.2019 06:00:00 10,0 9,4 8 4 - - NNW 0,0
20.05.2019 05:00:00 10,0 9,2 8 4 - - N 0,0
20.05.2019 04:00:00 10,1 9,5 11 6 - - NNE 0,0
20.05.2019 03:00:00 10,0 9,5 2 1 - - NNW 0,4
20.05.2019 02:00:00 10,0 9,5 4 2 - - NW 0,2
20.05.2019 01:00:00 9,8 8,9 5 3 - - NNW 0,0
20.05.2019 00:00:00 10,5 9,4 5 3 - - N 0,0
19.05.2019 23:00:00 11,1 9,8 5 3 - - NNE 0,0
19.05.2019 22:00:00 11,5 8,9 4 2 - - W 0,0
19.05.2019 21:00:00 12,0 8,9 4 2 - - S 0,0
19.05.2019 20:00:00 12,4 8,8 8 4 - - S 0,0
19.05.2019 19:00:00 12,2 9,8 11 6 - - E 0,0
19.05.2019 18:00:00 13,5 8,8 13 7 - - SE 0,0
19.05.2019 17:00:00 14,7 9,0 5 3 - - SW 0,0
19.05.2019 16:00:00 14,7 9,5 11 6 - - SSE 0,0
19.05.2019 15:00:00 15,2 7,9 8 4 - - SSW 0,0
19.05.2019 14:00:00 15,0 9,9 5 3 - - ENE 0,0
19.05.2019 13:00:00 11,8 8,9 4 2 - - S 0,0
19.05.2019 12:00:00 11,4 9,2 5 3 - - SE 0,0
19.05.2019 11:00:00 11,2 9,4 13 7 - - SE 0,0
19.05.2019 10:00:00 10,2 9,5 8 4 - - E 0,0
19.05.2019 09:00:00 9,6 9,0 11 6 - - SSE 0,0
19.05.2019 08:00:00 9,4 8,7 9 5 - - SE 0,0
19.05.2019 07:00:00 9,6 8,6 13 7 - - SE 0,0
19.05.2019 06:00:00 9,6 8,6 15 8 - - SE 0,0
19.05.2019 05:00:00 9,5 8,6 9 5 - - SE 0,0
19.05.2019 04:00:00 9,7 8,6 2 1 - - SSE 0,0
19.05.2019 03:00:00 9,7 8,8 9 5 - - SE 0,0
19.05.2019 02:00:00 9,7 8,9 11 6 - - SSE 0,0
19.05.2019 01:00:00 9,9 9,2 8 4 - - SSE 0,0
19.05.2019 00:00:00 9,6 9,0 8 4 - - ESE 0,0
18.05.2019 23:00:00 9,6 8,9 11 6 - - ESE 0,0
18.05.2019 22:00:00 9,7 8,9 5 3 - - ESE 0,0
18.05.2019 21:00:00 9,8 8,6 8 4 - - E 0,0
18.05.2019 20:00:00 9,9 8,5 9 5 - - ENE 0,0
18.05.2019 19:00:00 10,2 8,2 8 4 - - E 0,0
18.05.2019 18:00:00 10,4 8,3 8 4 - - E 0,0
18.05.2019 17:00:00 10,8 8,4 8 4 - - E 0,0
18.05.2019 16:00:00 11,3 8,3 11 6 - - E 0,0
18.05.2019 15:00:00 12,3 9,0 5 3 - - ESE 0,0
18.05.2019 14:00:00 10,6 9,1 8 4 - - SSE 0,2
18.05.2019 13:00:00 11,6 8,5 4 2 - - E 0,4
18.05.2019 12:00:00 11,2 9,0 15 8 - - N 0,0
18.05.2019 11:00:00 11,8 7,9 15 8 - - NNW 0,0
18.05.2019 10:00:00 10,5 6,9 8 4 - - N 0,0
18.05.2019 09:00:00 9,7 6,9 15 8 - - NNW 0,0
18.05.2019 08:00:00 9,1 6,5 8 4 - - NNE 0,0
18.05.2019 07:00:00 8,4 6,1 13 7 - - NW 0,0
18.05.2019 06:00:00 6,5 5,7 2 1 - - E 0,0
18.05.2019 05:00:00 6,3 5,3 8 4 - - NNE 0,0
18.05.2019 04:00:00 6,3 5,0 4 2 - - N 0,0
18.05.2019 03:00:00 7,4 5,8 2 1 - - SSW 0,0
18.05.2019 02:00:00 8,1 5,7 0 0 - - N 0,0
18.05.2019 01:00:00 9,2 5,4 4 2 - - ESE 0,0
18.05.2019 00:00:00 10,0 5,3 11 6 - - SE 0,0
17.05.2019 23:00:00 9,6 3,6 11 6 - - ESE 0,0
17.05.2019 22:00:00 9,4 3,8 9 5 - - SE 0,0
17.05.2019 21:00:00 11,4 4,0 16 9 - - ESE 0,0
17.05.2019 20:00:00 12,5 3,4 16 9 - - SE 0,0
17.05.2019 19:00:00 14,5 3,0 16 9 - - SE 0,0
17.05.2019 18:00:00 14,7 2,5 16 9 - - ESE 0,0
17.05.2019 17:00:00 15,7 1,4 18 10 - - ESE 0,0
17.05.2019 16:00:00 16,4 4,8 21 11 - - ESE 0,0
17.05.2019 15:00:00 17,5 4,5 15 8 - - E 0,0
17.05.2019 14:00:00 16,9 1,7 16 9 - - ESE 0,0
17.05.2019 13:00:00 16,8 2,6 21 11 - - SE 0,0
17.05.2019 12:00:00 15,3 2,3 21 11 - - SE 0,0
17.05.2019 11:00:00 15,8 4,7 26 14 - - SSE 0,0
17.05.2019 10:00:00 13,1 1,6 21 11 - - SE 0,0
17.05.2019 09:00:00 12,0 2,5 16 9 - - SSE 0,0
17.05.2019 08:00:00 10,5 3,3 16 9 - - SE 0,0
17.05.2019 07:00:00 9,3 3,2 24 13 - - SE 0,0
17.05.2019 06:00:00 8,6 3,1 24 13 - - SE 0,0
17.05.2019 05:00:00 6,9 2,3 22 12 - - ESE 0,0
17.05.2019 04:00:00 7,0 3,6 22 12 - - SE 0,0
17.05.2019 03:00:00 7,6 4,0 26 14 - - SE 0,0
17.05.2019 02:00:00 6,7 4,4 18 10 - - SE 0,0
17.05.2019 01:00:00 8,1 4,1 28 15 - - ESE 0,0
17.05.2019 00:00:00 8,6 4,3 28 15 50 27 ESE 0,0
16.05.2019 23:00:00 9,1 3,9 34 18 48 26 SE 0,0
16.05.2019 22:00:00 9,7 4,4 34 18 52 28 SE 0,0
16.05.2019 21:00:00 10,7 4,2 35 19 54 29 SE 0,0
16.05.2019 20:00:00 12,7 4,8 35 19 54 29 ESE 0,0
16.05.2019 19:00:00 14,6 3,7 37 20 55 30 SE 0,0
16.05.2019 18:00:00 15,7 4,7 39 21 57 31 SE 0,0
16.05.2019 17:00:00 16,5 5,1 35 19 55 30 SE 0,0
16.05.2019 16:00:00 16,7 5,7 35 19 55 30 SE 0,0
16.05.2019 15:00:00 16,3 5,7 37 20 52 28 SE 0,0
16.05.2019 14:00:00 16,2 7,0 37 20 50 27 SE 0,0
16.05.2019 13:00:00 16,0 7,1 39 21 54 29 SE 0,0
16.05.2019 12:00:00 14,6 7,3 39 21 50 27 SSE 0,0
16.05.2019 11:00:00 13,6 6,8 37 20 46 25 SSE 0,0
16.05.2019 10:00:00 12,3 7,1 31 17 - - SSE 0,0
16.05.2019 09:00:00 11,4 7,1 29 16 - - SSE 0,0
16.05.2019 08:00:00 10,4 7,3 22 12 - - SE 0,0
16.05.2019 07:00:00 9,1 7,2 28 15 - - ESE 0,0
16.05.2019 06:00:00 8,7 6,9 15 8 - - E 0,0
16.05.2019 05:00:00 7,5 5,4 8 4 - - N 0,0
16.05.2019 04:00:00 8,7 6,6 24 13 - - SE 0,0
16.05.2019 03:00:00 9,1 6,9 26 14 - - SE 0,0
16.05.2019 02:00:00 9,2 6,6 15 8 - - S 0,0
16.05.2019 01:00:00 10,0 6,8 29 16 - - ESE 0,0
16.05.2019 00:00:00 10,7 7,1 24 13 - - SE 0,0
15.05.2019 23:00:00 10,6 7,1 28 15 - - ESE 0,0
15.05.2019 22:00:00 11,8 7,6 29 16 - - ESE 0,0
15.05.2019 21:00:00 12,5 7,5 31 17 - - ESE 0,0
15.05.2019 20:00:00 15,2 7,9 26 14 - - ESE 0,0
15.05.2019 19:00:00 17,9 9,1 21 11 - - ESE 0,0
15.05.2019 18:00:00 19,3 8,7 21 11 - - ESE 0,0
15.05.2019 17:00:00 19,7 7,9 22 12 - - ESE 0,0
15.05.2019 16:00:00 21,6 8,2 18 10 - - SSE 0,0
15.05.2019 15:00:00 21,5 4,9 18 10 - - SSE 0,0
15.05.2019 14:00:00 21,6 6,9 13 7 - - SSE 0,0
15.05.2019 13:00:00 21,2 6,2 9 5 - - S 0,0
15.05.2019 12:00:00 20,7 5,1 9 5 - - SSW 0,0
15.05.2019 11:00:00 19,6 6,4 8 4 - - S 0,0
15.05.2019 10:00:00 17,9 6,7 9 5 - - SSE 0,0
15.05.2019 09:00:00 16,2 7,6 9 5 - - SSE 0,0
15.05.2019 08:00:00 14,4 7,8 15 8 - - SSE 0,0
15.05.2019 07:00:00 11,4 7,9 11 6 - - S 0,0
15.05.2019 06:00:00 9,8 5,6 4 2 - - SW 0,0
15.05.2019 05:00:00 11,4 5,4 18 10 - - SE 0,0
15.05.2019 04:00:00 2,0 1,6 2 1 - - E 0,0

tt = temperature
td = dewpoint
ff = wind speed
fx = gusts
dd = wind direction
rr = precipitation

Next stations